sensor_id;sensor_type;location;lat;lon;timestamp;P1;durP1;ratioP1;P2;durP2;ratioP2
10651;SDS011;5374;42.742;23.266;2023-10-19T00:01:26;19.00;;;15.77;;
10651;SDS011;5374;42.742;23.266;2023-10-19T00:04:20;16.57;;;14.77;;
10651;SDS011;5374;42.742;23.266;2023-10-19T00:07:07;19.03;;;15.77;;
10651;SDS011;5374;42.742;23.266;2023-10-19T00:10:01;17.77;;;15.10;;
10651;SDS011;5374;42.742;23.266;2023-10-19T00:12:49;18.10;;;14.57;;
10651;SDS011;5374;42.742;23.266;2023-10-19T00:15:45;17.57;;;15.37;;
10651;SDS011;5374;42.742;23.266;2023-10-19T00:18:37;16.73;;;15.00;;
10651;SDS011;5374;42.742;23.266;2023-10-19T00:21:29;18.50;;;15.07;;
10651;SDS011;5374;42.742;23.266;2023-10-19T00:24:21;17.00;;;14.57;;
10651;SDS011;5374;42.742;23.266;2023-10-19T00:27:09;17.53;;;15.27;;
10651;SDS011;5374;42.742;23.266;2023-10-19T00:30:03;17.73;;;15.00;;
10651;SDS011;5374;42.742;23.266;2023-10-19T00:32:52;17.40;;;14.30;;
10651;SDS011;5374;42.742;23.266;2023-10-19T00:35:40;18.43;;;15.57;;
10651;SDS011;5374;42.742;23.266;2023-10-19T00:38:33;16.87;;;14.47;;
10651;SDS011;5374;42.742;23.266;2023-10-19T00:41:33;16.33;;;14.60;;
10651;SDS011;5374;42.742;23.266;2023-10-19T00:44:20;16.37;;;14.50;;
10651;SDS011;5374;42.742;23.266;2023-10-19T00:47:21;16.50;;;14.27;;
10651;SDS011;5374;42.742;23.266;2023-10-19T00:50:10;15.80;;;13.63;;
10651;SDS011;5374;42.742;23.266;2023-10-19T00:53:01;16.57;;;14.80;;
10651;SDS011;5374;42.742;23.266;2023-10-19T00:55:54;16.83;;;13.60;;
10651;SDS011;5374;42.742;23.266;2023-10-19T00:58:41;16.73;;;13.67;;
10651;SDS011;5374;42.742;23.266;2023-10-19T01:01:33;15.63;;;14.03;;
10651;SDS011;5374;42.742;23.266;2023-10-19T01:04:26;15.67;;;14.00;;
10651;SDS011;5374;42.742;23.266;2023-10-19T01:07:18;15.80;;;13.30;;
10651;SDS011;5374;42.742;23.266;2023-10-19T01:10:12;17.60;;;14.53;;
10651;SDS011;5374;42.742;23.266;2023-10-19T01:13:06;17.67;;;14.70;;
10651;SDS011;5374;42.742;23.266;2023-10-19T01:15:57;14.87;;;13.30;;
10651;SDS011;5374;42.742;23.266;2023-10-19T01:18:44;16.33;;;14.63;;
10651;SDS011;5374;42.742;23.266;2023-10-19T01:21:31;16.27;;;13.40;;
10651;SDS011;5374;42.742;23.266;2023-10-19T01:24:35;18.53;;;14.67;;
10651;SDS011;5374;42.742;23.266;2023-10-19T01:27:29;14.90;;;13.37;;
10651;SDS011;5374;42.742;23.266;2023-10-19T01:30:16;19.10;;;14.73;;
10651;SDS011;5374;42.742;23.266;2023-10-19T01:33:04;21.10;;;15.73;;
10651;SDS011;5374;42.742;23.266;2023-10-19T01:35:58;22.80;;;15.63;;
10651;SDS011;5374;42.742;23.266;2023-10-19T01:38:59;24.10;;;16.60;;
10651;SDS011;5374;42.742;23.266;2023-10-19T01:41:49;18.73;;;16.13;;
10651;SDS011;5374;42.742;23.266;2023-10-19T01:44:36;22.13;;;14.90;;
10651;SDS011;5374;42.742;23.266;2023-10-19T01:47:23;17.13;;;15.13;;
10651;SDS011;5374;42.742;23.266;2023-10-19T01:50:10;18.23;;;15.03;;
10651;SDS011;5374;42.742;23.266;2023-10-19T01:53:05;18.80;;;15.80;;
10651;SDS011;5374;42.742;23.266;2023-10-19T01:55:58;17.97;;;15.60;;
10651;SDS011;5374;42.742;23.266;2023-10-19T01:58:46;17.10;;;15.30;;
10651;SDS011;5374;42.742;23.266;2023-10-19T02:01:33;17.77;;;15.90;;
10651;SDS011;5374;42.742;23.266;2023-10-19T02:04:22;19.10;;;15.80;;
10651;SDS011;5374;42.742;23.266;2023-10-19T02:07:11;17.93;;;15.43;;
10651;SDS011;5374;42.742;23.266;2023-10-19T02:09:58;17.37;;;14.87;;
10651;SDS011;5374;42.742;23.266;2023-10-19T02:12:45;17.53;;;15.70;;
10651;SDS011;5374;42.742;23.266;2023-10-19T02:15:34;16.47;;;14.70;;
10651;SDS011;5374;42.742;23.266;2023-10-19T02:18:22;18.93;;;15.40;;
10651;SDS011;5374;42.742;23.266;2023-10-19T02:21:08;16.73;;;14.83;;
10651;SDS011;5374;42.742;23.266;2023-10-19T02:23:57;15.77;;;14.17;;
10651;SDS011;5374;42.742;23.266;2023-10-19T02:26:45;20.10;;;15.43;;
10651;SDS011;5374;42.742;23.266;2023-10-19T02:29:32;17.33;;;14.53;;
10651;SDS011;5374;42.742;23.266;2023-10-19T02:32:23;16.00;;;14.30;;
10651;SDS011;5374;42.742;23.266;2023-10-19T02:35:12;19.23;;;15.53;;
10651;SDS011;5374;42.742;23.266;2023-10-19T02:37:59;16.73;;;14.93;;
10651;SDS011;5374;42.742;23.266;2023-10-19T02:40:46;17.07;;;15.20;;
10651;SDS011;5374;42.742;23.266;2023-10-19T02:43:34;17.90;;;15.37;;
10651;SDS011;5374;42.742;23.266;2023-10-19T02:46:20;18.20;;;15.67;;
10651;SDS011;5374;42.742;23.266;2023-10-19T02:49:10;17.93;;;16.03;;
10651;SDS011;5374;42.742;23.266;2023-10-19T02:51:59;20.57;;;16.83;;
10651;SDS011;5374;42.742;23.266;2023-10-19T02:54:49;18.03;;;16.13;;
10651;SDS011;5374;42.742;23.266;2023-10-19T02:57:36;20.00;;;17.90;;
10651;SDS011;5374;42.742;23.266;2023-10-19T03:00:23;20.13;;;17.63;;
10651;SDS011;5374;42.742;23.266;2023-10-19T03:03:18;20.77;;;16.80;;
10651;SDS011;5374;42.742;23.266;2023-10-19T03:06:06;20.07;;;17.87;;
10651;SDS011;5374;42.742;23.266;2023-10-19T03:08:59;20.53;;;17.40;;
10651;SDS011;5374;42.742;23.266;2023-10-19T03:11:58;20.33;;;16.73;;
10651;SDS011;5374;42.742;23.266;2023-10-19T03:14:48;18.97;;;16.70;;
10651;SDS011;5374;42.742;23.266;2023-10-19T03:17:36;19.33;;;17.20;;
10651;SDS011;5374;42.742;23.266;2023-10-19T03:20:22;19.33;;;17.30;;
10651;SDS011;5374;42.742;23.266;2023-10-19T03:23:14;19.07;;;17.07;;
10651;SDS011;5374;42.742;23.266;2023-10-19T03:26:00;23.80;;;17.70;;
10651;SDS011;5374;42.742;23.266;2023-10-19T03:29:05;21.30;;;17.13;;
10651;SDS011;5374;42.742;23.266;2023-10-19T03:31:57;22.33;;;17.43;;
10651;SDS011;5374;42.742;23.266;2023-10-19T03:34:45;20.57;;;17.47;;
10651;SDS011;5374;42.742;23.266;2023-10-19T03:37:35;21.40;;;17.73;;
10651;SDS011;5374;42.742;23.266;2023-10-19T03:40:23;23.50;;;17.57;;
10651;SDS011;5374;42.742;23.266;2023-10-19T03:43:15;22.50;;;17.87;;
10651;SDS011;5374;42.742;23.266;2023-10-19T03:46:03;22.63;;;17.30;;
10651;SDS011;5374;42.742;23.266;2023-10-19T03:49:00;25.13;;;20.37;;
10651;SDS011;5374;42.742;23.266;2023-10-19T03:51:56;28.47;;;20.80;;
10651;SDS011;5374;42.742;23.266;2023-10-19T03:54:48;25.67;;;20.63;;
10651;SDS011;5374;42.742;23.266;2023-10-19T03:57:37;27.37;;;21.50;;
10651;SDS011;5374;42.742;23.266;2023-10-19T04:00:31;31.63;;;23.03;;
10651;SDS011;5374;42.742;23.266;2023-10-19T04:03:20;32.93;;;22.40;;
10651;SDS011;5374;42.742;23.266;2023-10-19T04:06:10;39.70;;;22.43;;
10651;SDS011;5374;42.742;23.266;2023-10-19T04:09:00;25.57;;;20.37;;
10651;SDS011;5374;42.742;23.266;2023-10-19T04:11:49;28.97;;;22.37;;
10651;SDS011;5374;42.742;23.266;2023-10-19T04:14:39;27.40;;;22.07;;
10651;SDS011;5374;42.742;23.266;2023-10-19T04:17:27;27.50;;;19.97;;
10651;SDS011;5374;42.742;23.266;2023-10-19T04:20:15;26.97;;;19.30;;
10651;SDS011;5374;42.742;23.266;2023-10-19T04:23:15;25.70;;;19.63;;
10651;SDS011;5374;42.742;23.266;2023-10-19T04:26:06;28.37;;;20.23;;
10651;SDS011;5374;42.742;23.266;2023-10-19T04:28:57;22.67;;;20.27;;
10651;SDS011;5374;42.742;23.266;2023-10-19T04:31:56;26.23;;;19.93;;
10651;SDS011;5374;42.742;23.266;2023-10-19T04:34:44;34.77;;;21.20;;
10651;SDS011;5374;42.742;23.266;2023-10-19T04:37:32;33.03;;;22.20;;
10651;SDS011;5374;42.742;23.266;2023-10-19T04:40:20;34.07;;;22.17;;
10651;SDS011;5374;42.742;23.266;2023-10-19T04:43:08;44.20;;;24.87;;
10651;SDS011;5374;42.742;23.266;2023-10-19T04:45:55;44.63;;;26.00;;
10651;SDS011;5374;42.742;23.266;2023-10-19T04:48:45;41.23;;;25.87;;
10651;SDS011;5374;42.742;23.266;2023-10-19T04:51:32;50.83;;;27.57;;
10651;SDS011;5374;42.742;23.266;2023-10-19T04:54:23;50.97;;;28.83;;
10651;SDS011;5374;42.742;23.266;2023-10-19T04:57:10;47.03;;;29.50;;
10651;SDS011;5374;42.742;23.266;2023-10-19T04:59:57;62.57;;;31.30;;
10651;SDS011;5374;42.742;23.266;2023-10-19T05:02:44;57.47;;;31.43;;
10651;SDS011;5374;42.742;23.266;2023-10-19T05:05:32;64.67;;;31.37;;
10651;SDS011;5374;42.742;23.266;2023-10-19T05:08:21;50.80;;;28.93;;
10651;SDS011;5374;42.742;23.266;2023-10-19T05:11:10;69.43;;;28.10;;
10651;SDS011;5374;42.742;23.266;2023-10-19T05:13:57;64.77;;;28.93;;
10651;SDS011;5374;42.742;23.266;2023-10-19T05:16:44;101.13;;;29.90;;
10651;SDS011;5374;42.742;23.266;2023-10-19T05:19:31;39.50;;;26.43;;
10651;SDS011;5374;42.742;23.266;2023-10-19T05:22:20;50.03;;;28.23;;
10651;SDS011;5374;42.742;23.266;2023-10-19T05:25:10;93.93;;;30.17;;
10651;SDS011;5374;42.742;23.266;2023-10-19T05:27:57;83.57;;;30.23;;
10651;SDS011;5374;42.742;23.266;2023-10-19T05:30:47;46.07;;;29.23;;
10651;SDS011;5374;42.742;23.266;2023-10-19T05:33:34;74.87;;;30.20;;
10651;SDS011;5374;42.742;23.266;2023-10-19T05:36:21;61.80;;;30.50;;
10651;SDS011;5374;42.742;23.266;2023-10-19T05:39:11;59.77;;;30.30;;
10651;SDS011;5374;42.742;23.266;2023-10-19T05:41:59;51.60;;;28.03;;
10651;SDS011;5374;42.742;23.266;2023-10-19T05:44:46;38.73;;;27.10;;
10651;SDS011;5374;42.742;23.266;2023-10-19T05:47:33;50.47;;;26.83;;
10651;SDS011;5374;42.742;23.266;2023-10-19T05:50:21;41.90;;;27.30;;
10651;SDS011;5374;42.742;23.266;2023-10-19T05:53:08;42.03;;;25.80;;
10651;SDS011;5374;42.742;23.266;2023-10-19T05:55:58;34.97;;;25.33;;
10651;SDS011;5374;42.742;23.266;2023-10-19T05:58:45;41.17;;;26.27;;
10651;SDS011;5374;42.742;23.266;2023-10-19T06:01:36;57.60;;;27.23;;
10651;SDS011;5374;42.742;23.266;2023-10-19T06:04:23;35.83;;;25.13;;
10651;SDS011;5374;42.742;23.266;2023-10-19T06:07:10;33.53;;;24.80;;
10651;SDS011;5374;42.742;23.266;2023-10-19T06:09:57;36.70;;;25.80;;
10651;SDS011;5374;42.742;23.266;2023-10-19T06:12:51;39.27;;;27.93;;
10651;SDS011;5374;42.742;23.266;2023-10-19T06:15:38;39.83;;;27.97;;
10651;SDS011;5374;42.742;23.266;2023-10-19T06:18:26;33.90;;;25.73;;
10651;SDS011;5374;42.742;23.266;2023-10-19T06:21:17;42.73;;;29.63;;
10651;SDS011;5374;42.742;23.266;2023-10-19T06:24:06;43.43;;;30.53;;
10651;SDS011;5374;42.742;23.266;2023-10-19T06:26:54;50.23;;;33.40;;
10651;SDS011;5374;42.742;23.266;2023-10-19T06:29:43;49.27;;;35.60;;
10651;SDS011;5374;42.742;23.266;2023-10-19T06:32:31;40.20;;;27.77;;
10651;SDS011;5374;42.742;23.266;2023-10-19T06:35:18;38.60;;;28.03;;
10651;SDS011;5374;42.742;23.266;2023-10-19T06:38:06;42.40;;;29.17;;
10651;SDS011;5374;42.742;23.266;2023-10-19T06:40:54;39.27;;;29.07;;
10651;SDS011;5374;42.742;23.266;2023-10-19T06:43:42;40.57;;;28.00;;
10651;SDS011;5374;42.742;23.266;2023-10-19T06:46:30;36.87;;;29.10;;
10651;SDS011;5374;42.742;23.266;2023-10-19T06:49:17;45.67;;;32.73;;
10651;SDS011;5374;42.742;23.266;2023-10-19T06:52:04;44.13;;;32.43;;
10651;SDS011;5374;42.742;23.266;2023-10-19T06:54:52;45.73;;;32.43;;
10651;SDS011;5374;42.742;23.266;2023-10-19T06:57:39;39.43;;;30.67;;
10651;SDS011;5374;42.742;23.266;2023-10-19T07:00:28;33.37;;;26.57;;
10651;SDS011;5374;42.742;23.266;2023-10-19T07:03:17;40.13;;;28.00;;
10651;SDS011;5374;42.742;23.266;2023-10-19T07:06:04;41.57;;;28.63;;
10651;SDS011;5374;42.742;23.266;2023-10-19T07:08:53;31.20;;;25.07;;
10651;SDS011;5374;42.742;23.266;2023-10-19T07:11:41;31.47;;;24.33;;
10651;SDS011;5374;42.742;23.266;2023-10-19T07:14:32;33.50;;;24.40;;
10651;SDS011;5374;42.742;23.266;2023-10-19T07:17:19;43.17;;;29.03;;
10651;SDS011;5374;42.742;23.266;2023-10-19T07:20:08;39.43;;;27.13;;
10651;SDS011;5374;42.742;23.266;2023-10-19T07:23:07;37.20;;;24.20;;
10651;SDS011;5374;42.742;23.266;2023-10-19T07:26:03;35.17;;;25.00;;
10651;SDS011;5374;42.742;23.266;2023-10-19T07:28:51;29.53;;;23.80;;
10651;SDS011;5374;42.742;23.266;2023-10-19T07:31:38;33.43;;;24.43;;
10651;SDS011;5374;42.742;23.266;2023-10-19T07:34:25;35.23;;;25.40;;
10651;SDS011;5374;42.742;23.266;2023-10-19T07:37:15;30.50;;;24.37;;
10651;SDS011;5374;42.742;23.266;2023-10-19T07:40:03;33.83;;;25.03;;
10651;SDS011;5374;42.742;23.266;2023-10-19T07:42:52;30.57;;;24.50;;
10651;SDS011;5374;42.742;23.266;2023-10-19T07:45:40;28.77;;;22.83;;
10651;SDS011;5374;42.742;23.266;2023-10-19T07:48:28;29.63;;;24.27;;
10651;SDS011;5374;42.742;23.266;2023-10-19T07:51:15;27.47;;;22.63;;
10651;SDS011;5374;42.742;23.266;2023-10-19T07:54:05;27.10;;;23.27;;
10651;SDS011;5374;42.742;23.266;2023-10-19T07:56:54;29.77;;;21.67;;
10651;SDS011;5374;42.742;23.266;2023-10-19T07:59:43;25.77;;;22.13;;
10651;SDS011;5374;42.742;23.266;2023-10-19T08:02:33;27.10;;;21.83;;
10651;SDS011;5374;42.742;23.266;2023-10-19T08:05:20;25.57;;;21.40;;
10651;SDS011;5374;42.742;23.266;2023-10-19T08:08:07;31.33;;;24.50;;
10651;SDS011;5374;42.742;23.266;2023-10-19T08:10:56;25.47;;;22.33;;
10651;SDS011;5374;42.742;23.266;2023-10-19T08:13:44;27.50;;;22.07;;
10651;SDS011;5374;42.742;23.266;2023-10-19T08:16:31;28.80;;;23.00;;
10651;SDS011;5374;42.742;23.266;2023-10-19T08:19:18;25.03;;;21.10;;
10651;SDS011;5374;42.742;23.266;2023-10-19T08:22:06;25.00;;;21.00;;
10651;SDS011;5374;42.742;23.266;2023-10-19T08:24:53;23.37;;;20.87;;
10651;SDS011;5374;42.742;23.266;2023-10-19T08:27:42;27.90;;;20.50;;
10651;SDS011;5374;42.742;23.266;2023-10-19T08:30:31;24.37;;;20.40;;
10651;SDS011;5374;42.742;23.266;2023-10-19T08:33:19;27.10;;;21.77;;
10651;SDS011;5374;42.742;23.266;2023-10-19T08:36:07;29.50;;;21.17;;
10651;SDS011;5374;42.742;23.266;2023-10-19T08:39:05;26.10;;;21.30;;
10651;SDS011;5374;42.742;23.266;2023-10-19T08:41:52;25.53;;;20.30;;
10651;SDS011;5374;42.742;23.266;2023-10-19T08:44:42;21.90;;;19.30;;
10651;SDS011;5374;42.742;23.266;2023-10-19T08:47:29;25.20;;;20.77;;
10651;SDS011;5374;42.742;23.266;2023-10-19T08:50:16;17.93;;;16.03;;
10651;SDS011;5374;42.742;23.266;2023-10-19T08:53:09;17.37;;;15.63;;
10651;SDS011;5374;42.742;23.266;2023-10-19T08:55:59;17.03;;;15.30;;
10651;SDS011;5374;42.742;23.266;2023-10-19T08:58:49;15.87;;;13.37;;
10651;SDS011;5374;42.742;23.266;2023-10-19T09:01:39;18.40;;;14.60;;
10651;SDS011;5374;42.742;23.266;2023-10-19T09:04:28;15.60;;;12.60;;
10651;SDS011;5374;42.742;23.266;2023-10-19T09:07:16;17.10;;;13.90;;
10651;SDS011;5374;42.742;23.266;2023-10-19T09:10:03;14.43;;;13.03;;
10651;SDS011;5374;42.742;23.266;2023-10-19T09:12:59;13.07;;;11.70;;
10651;SDS011;5374;42.742;23.266;2023-10-19T09:15:48;12.43;;;11.17;;
10651;SDS011;5374;42.742;23.266;2023-10-19T09:18:39;13.30;;;11.27;;
10651;SDS011;5374;42.742;23.266;2023-10-19T09:21:26;11.87;;;10.67;;
10651;SDS011;5374;42.742;23.266;2023-10-19T09:24:14;11.87;;;10.57;;
10651;SDS011;5374;42.742;23.266;2023-10-19T09:27:02;12.83;;;11.53;;
10651;SDS011;5374;42.742;23.266;2023-10-19T09:29:49;11.33;;;10.23;;
10651;SDS011;5374;42.742;23.266;2023-10-19T09:32:39;11.50;;;10.40;;
10651;SDS011;5374;42.742;23.266;2023-10-19T09:35:29;11.90;;;10.40;;
10651;SDS011;5374;42.742;23.266;2023-10-19T09:38:17;12.33;;;11.13;;
10651;SDS011;5374;42.742;23.266;2023-10-19T09:41:07;13.43;;;12.10;;
10651;SDS011;5374;42.742;23.266;2023-10-19T09:44:00;13.80;;;12.40;;
10651;SDS011;5374;42.742;23.266;2023-10-19T09:46:52;12.87;;;11.57;;
10651;SDS011;5374;42.742;23.266;2023-10-19T09:49:44;12.30;;;11.10;;
10651;SDS011;5374;42.742;23.266;2023-10-19T09:52:32;12.87;;;11.50;;
10651;SDS011;5374;42.742;23.266;2023-10-19T09:55:22;12.47;;;11.17;;
10651;SDS011;5374;42.742;23.266;2023-10-19T09:58:12;11.83;;;10.60;;
10651;SDS011;5374;42.742;23.266;2023-10-19T10:01:04;11.30;;;10.20;;
10651;SDS011;5374;42.742;23.266;2023-10-19T10:03:57;14.00;;;10.83;;
10651;SDS011;5374;42.742;23.266;2023-10-19T10:06:56;10.97;;;9.87;;
10651;SDS011;5374;42.742;23.266;2023-10-19T10:09:47;12.17;;;10.80;;
10651;SDS011;5374;42.742;23.266;2023-10-19T10:12:35;11.37;;;10.17;;
10651;SDS011;5374;42.742;23.266;2023-10-19T10:15:26;11.83;;;10.60;;
10651;SDS011;5374;42.742;23.266;2023-10-19T10:18:25;11.40;;;10.27;;
10651;SDS011;5374;42.742;23.266;2023-10-19T10:21:13;12.03;;;10.20;;
10651;SDS011;5374;42.742;23.266;2023-10-19T10:24:03;11.57;;;10.10;;
10651;SDS011;5374;42.742;23.266;2023-10-19T10:26:58;11.57;;;9.80;;
10651;SDS011;5374;42.742;23.266;2023-10-19T10:29:53;13.23;;;9.33;;
10651;SDS011;5374;42.742;23.266;2023-10-19T10:32:44;10.90;;;9.10;;
10651;SDS011;5374;42.742;23.266;2023-10-19T10:38:42;10.53;;;9.53;;
10651;SDS011;5374;42.742;23.266;2023-10-19T10:41:30;12.13;;;8.97;;
10651;SDS011;5374;42.742;23.266;2023-10-19T10:44:18;9.83;;;8.87;;
10651;SDS011;5374;42.742;23.266;2023-10-19T10:47:06;11.10;;;9.87;;
10651;SDS011;5374;42.742;23.266;2023-10-19T10:49:55;11.30;;;9.27;;
10651;SDS011;5374;42.742;23.266;2023-10-19T10:52:43;10.83;;;9.80;;
10651;SDS011;5374;42.742;23.266;2023-10-19T10:55:30;10.20;;;9.20;;
10651;SDS011;5374;42.742;23.266;2023-10-19T10:58:18;12.23;;;9.80;;
10651;SDS011;5374;42.742;23.266;2023-10-19T11:01:07;12.37;;;9.70;;
10651;SDS011;5374;42.742;23.266;2023-10-19T11:04:05;10.27;;;9.27;;
10651;SDS011;5374;42.742;23.266;2023-10-19T11:06:55;10.73;;;9.30;;
10651;SDS011;5374;42.742;23.266;2023-10-19T11:09:43;13.17;;;9.93;;
10651;SDS011;5374;42.742;23.266;2023-10-19T11:12:31;10.00;;;9.03;;
10651;SDS011;5374;42.742;23.266;2023-10-19T11:15:20;10.53;;;8.73;;
10651;SDS011;5374;42.742;23.266;2023-10-19T11:18:09;9.97;;;8.23;;
10651;SDS011;5374;42.742;23.266;2023-10-19T11:20:57;9.40;;;8.50;;
10651;SDS011;5374;42.742;23.266;2023-10-19T11:23:49;9.20;;;7.97;;
10651;SDS011;5374;42.742;23.266;2023-10-19T11:26:39;8.80;;;7.73;;
10651;SDS011;5374;42.742;23.266;2023-10-19T11:29:26;7.83;;;7.03;;
10651;SDS011;5374;42.742;23.266;2023-10-19T11:32:14;7.77;;;7.07;;
10651;SDS011;5374;42.742;23.266;2023-10-19T11:35:03;7.47;;;6.67;;
10651;SDS011;5374;42.742;23.266;2023-10-19T11:37:53;8.27;;;6.73;;
10651;SDS011;5374;42.742;23.266;2023-10-19T11:40:41;10.30;;;7.60;;
10651;SDS011;5374;42.742;23.266;2023-10-19T11:43:28;7.63;;;6.60;;
10651;SDS011;5374;42.742;23.266;2023-10-19T11:46:15;6.80;;;6.13;;
10651;SDS011;5374;42.742;23.266;2023-10-19T11:49:03;7.33;;;6.63;;
10651;SDS011;5374;42.742;23.266;2023-10-19T11:51:52;7.00;;;6.03;;
10651;SDS011;5374;42.742;23.266;2023-10-19T11:54:39;7.77;;;5.90;;
10651;SDS011;5374;42.742;23.266;2023-10-19T11:57:26;8.90;;;6.70;;
10651;SDS011;5374;42.742;23.266;2023-10-19T12:00:14;11.03;;;6.80;;
10651;SDS011;5374;42.742;23.266;2023-10-19T12:03:07;8.37;;;7.33;;
10651;SDS011;5374;42.742;23.266;2023-10-19T12:05:55;8.63;;;7.83;;
10651;SDS011;5374;42.742;23.266;2023-10-19T12:08:44;7.93;;;6.77;;
10651;SDS011;5374;42.742;23.266;2023-10-19T12:11:32;9.33;;;6.63;;
10651;SDS011;5374;42.742;23.266;2023-10-19T12:14:19;7.33;;;6.63;;
10651;SDS011;5374;42.742;23.266;2023-10-19T12:17:06;7.47;;;6.47;;
10651;SDS011;5374;42.742;23.266;2023-10-19T12:19:53;9.57;;;6.30;;
10651;SDS011;5374;42.742;23.266;2023-10-19T12:22:41;7.40;;;6.13;;
10651;SDS011;5374;42.742;23.266;2023-10-19T12:25:29;7.00;;;6.13;;
10651;SDS011;5374;42.742;23.266;2023-10-19T12:28:17;6.07;;;5.50;;
10651;SDS011;5374;42.742;23.266;2023-10-19T12:31:04;6.57;;;5.90;;
10651;SDS011;5374;42.742;23.266;2023-10-19T12:33:54;6.87;;;5.67;;
10651;SDS011;5374;42.742;23.266;2023-10-19T12:36:41;6.67;;;5.20;;
10651;SDS011;5374;42.742;23.266;2023-10-19T12:39:32;8.07;;;5.50;;
10651;SDS011;5374;42.742;23.266;2023-10-19T12:42:28;5.47;;;5.00;;
10651;SDS011;5374;42.742;23.266;2023-10-19T12:45:16;6.67;;;5.03;;
10651;SDS011;5374;42.742;23.266;2023-10-19T12:48:05;6.83;;;5.60;;
10651;SDS011;5374;42.742;23.266;2023-10-19T12:50:53;5.83;;;4.70;;
10651;SDS011;5374;42.742;23.266;2023-10-19T12:53:41;5.63;;;5.10;;
10651;SDS011;5374;42.742;23.266;2023-10-19T12:56:28;6.77;;;5.80;;
10651;SDS011;5374;42.742;23.266;2023-10-19T12:59:20;8.43;;;5.43;;
10651;SDS011;5374;42.742;23.266;2023-10-19T13:02:08;6.03;;;5.43;;
10651;SDS011;5374;42.742;23.266;2023-10-19T13:04:55;9.37;;;5.77;;
10651;SDS011;5374;42.742;23.266;2023-10-19T13:07:44;7.47;;;5.33;;
10651;SDS011;5374;42.742;23.266;2023-10-19T13:10:32;9.23;;;5.30;;
10651;SDS011;5374;42.742;23.266;2023-10-19T13:13:22;6.53;;;5.07;;
10651;SDS011;5374;42.742;23.266;2023-10-19T13:16:11;9.13;;;5.70;;
10651;SDS011;5374;42.742;23.266;2023-10-19T13:18:58;12.80;;;6.03;;
10651;SDS011;5374;42.742;23.266;2023-10-19T13:21:54;7.20;;;5.17;;
10651;SDS011;5374;42.742;23.266;2023-10-19T13:24:43;7.50;;;5.90;;
10651;SDS011;5374;42.742;23.266;2023-10-19T13:27:31;9.37;;;6.00;;
10651;SDS011;5374;42.742;23.266;2023-10-19T13:30:19;8.67;;;5.77;;
10651;SDS011;5374;42.742;23.266;2023-10-19T13:33:08;6.97;;;5.50;;
10651;SDS011;5374;42.742;23.266;2023-10-19T13:35:56;9.20;;;5.77;;
10651;SDS011;5374;42.742;23.266;2023-10-19T13:38:44;10.13;;;5.83;;
10651;SDS011;5374;42.742;23.266;2023-10-19T13:41:31;6.80;;;5.60;;
10651;SDS011;5374;42.742;23.266;2023-10-19T13:44:18;9.27;;;5.73;;
10651;SDS011;5374;42.742;23.266;2023-10-19T13:47:07;9.40;;;6.50;;
10651;SDS011;5374;42.742;23.266;2023-10-19T13:49:58;9.40;;;5.77;;
10651;SDS011;5374;42.742;23.266;2023-10-19T13:52:45;6.10;;;5.50;;
10651;SDS011;5374;42.742;23.266;2023-10-19T13:55:32;6.53;;;5.63;;
10651;SDS011;5374;42.742;23.266;2023-10-19T13:58:22;10.13;;;5.53;;
10651;SDS011;5374;42.742;23.266;2023-10-19T14:01:11;7.57;;;5.87;;
10651;SDS011;5374;42.742;23.266;2023-10-19T14:03:58;8.00;;;6.13;;
10651;SDS011;5374;42.742;23.266;2023-10-19T14:06:47;6.30;;;5.70;;
10651;SDS011;5374;42.742;23.266;2023-10-19T14:09:35;8.80;;;5.70;;
10651;SDS011;5374;42.742;23.266;2023-10-19T14:12:22;11.80;;;6.20;;
10651;SDS011;5374;42.742;23.266;2023-10-19T14:15:12;10.53;;;7.83;;
10651;SDS011;5374;42.742;23.266;2023-10-19T14:18:00;11.60;;;5.10;;
10651;SDS011;5374;42.742;23.266;2023-10-19T14:20:48;7.13;;;6.00;;
10651;SDS011;5374;42.742;23.266;2023-10-19T14:23:36;7.63;;;5.80;;
10651;SDS011;5374;42.742;23.266;2023-10-19T14:26:25;11.23;;;7.37;;
10651;SDS011;5374;42.742;23.266;2023-10-19T14:29:13;12.47;;;9.43;;
10651;SDS011;5374;42.742;23.266;2023-10-19T14:32:00;11.20;;;7.20;;
10651;SDS011;5374;42.742;23.266;2023-10-19T14:34:48;6.23;;;4.60;;
10651;SDS011;5374;42.742;23.266;2023-10-19T14:37:35;8.50;;;4.77;;
10651;SDS011;5374;42.742;23.266;2023-10-19T14:40:26;9.63;;;4.83;;
10651;SDS011;5374;42.742;23.266;2023-10-19T14:43:14;7.37;;;5.13;;
10651;SDS011;5374;42.742;23.266;2023-10-19T14:46:01;7.43;;;5.53;;
10651;SDS011;5374;42.742;23.266;2023-10-19T14:48:48;6.50;;;4.73;;
10651;SDS011;5374;42.742;23.266;2023-10-19T14:51:35;6.00;;;4.50;;
10651;SDS011;5374;42.742;23.266;2023-10-19T14:54:22;7.37;;;4.60;;
10651;SDS011;5374;42.742;23.266;2023-10-19T14:57:11;5.60;;;4.60;;
10651;SDS011;5374;42.742;23.266;2023-10-19T14:59:58;7.33;;;4.30;;
10651;SDS011;5374;42.742;23.266;2023-10-19T15:02:53;6.33;;;5.17;;
10651;SDS011;5374;42.742;23.266;2023-10-19T15:05:41;24.43;;;15.43;;
10651;SDS011;5374;42.742;23.266;2023-10-19T15:08:28;30.20;;;21.80;;
10651;SDS011;5374;42.742;23.266;2023-10-19T15:11:17;60.10;;;42.63;;
10651;SDS011;5374;42.742;23.266;2023-10-19T15:14:08;65.40;;;44.07;;
10651;SDS011;5374;42.742;23.266;2023-10-19T15:16:57;56.87;;;40.97;;
10651;SDS011;5374;42.742;23.266;2023-10-19T15:19:44;42.83;;;30.07;;
10651;SDS011;5374;42.742;23.266;2023-10-19T15:22:31;39.60;;;26.17;;
10651;SDS011;5374;42.742;23.266;2023-10-19T15:25:19;41.33;;;26.83;;
10651;SDS011;5374;42.742;23.266;2023-10-19T15:28:06;46.73;;;29.77;;
10651;SDS011;5374;42.742;23.266;2023-10-19T15:30:56;44.13;;;21.23;;
10651;SDS011;5374;42.742;23.266;2023-10-19T15:33:44;36.13;;;19.33;;
10651;SDS011;5374;42.742;23.266;2023-10-19T15:36:32;33.87;;;15.10;;
10651;SDS011;5374;42.742;23.266;2023-10-19T15:39:20;24.93;;;12.90;;
10651;SDS011;5374;42.742;23.266;2023-10-19T15:42:08;21.00;;;11.50;;
10651;SDS011;5374;42.742;23.266;2023-10-19T15:44:57;14.37;;;10.80;;
10651;SDS011;5374;42.742;23.266;2023-10-19T15:47:45;16.53;;;10.23;;
10651;SDS011;5374;42.742;23.266;2023-10-19T15:50:33;21.13;;;11.17;;
10651;SDS011;5374;42.742;23.266;2023-10-19T15:53:20;19.40;;;12.90;;
10651;SDS011;5374;42.742;23.266;2023-10-19T15:56:08;18.67;;;14.37;;
10651;SDS011;5374;42.742;23.266;2023-10-19T15:58:55;22.43;;;14.27;;
10651;SDS011;5374;42.742;23.266;2023-10-19T16:01:42;21.67;;;15.90;;
10651;SDS011;5374;42.742;23.266;2023-10-19T16:04:32;24.07;;;14.93;;
10651;SDS011;5374;42.742;23.266;2023-10-19T16:07:19;21.87;;;14.83;;
10651;SDS011;5374;42.742;23.266;2023-10-19T16:10:07;21.20;;;12.27;;
10651;SDS011;5374;42.742;23.266;2023-10-19T16:12:56;23.03;;;15.10;;
10651;SDS011;5374;42.742;23.266;2023-10-19T16:15:43;43.83;;;28.07;;
10651;SDS011;5374;42.742;23.266;2023-10-19T16:18:30;46.40;;;27.40;;
10651;SDS011;5374;42.742;23.266;2023-10-19T16:21:18;133.77;;;74.73;;
10651;SDS011;5374;42.742;23.266;2023-10-19T16:24:07;78.07;;;41.43;;
10651;SDS011;5374;42.742;23.266;2023-10-19T16:26:59;23.80;;;13.70;;
10651;SDS011;5374;42.742;23.266;2023-10-19T16:29:47;14.53;;;8.20;;
10651;SDS011;5374;42.742;23.266;2023-10-19T16:32:34;32.30;;;19.53;;
10651;SDS011;5374;42.742;23.266;2023-10-19T16:35:23;37.07;;;21.50;;
10651;SDS011;5374;42.742;23.266;2023-10-19T16:38:13;24.40;;;18.13;;
10651;SDS011;5374;42.742;23.266;2023-10-19T16:41:00;22.50;;;15.43;;